sensor_id;sensor_type;location;lat;lon;timestamp;temperature;humidity
21805;DHT22;11064;47.102;15.452;2023-04-24T04:03:10;7.70;99.90
21805;DHT22;11064;47.102;15.452;2023-04-24T04:05:36;7.70;99.90
21805;DHT22;11064;47.102;15.452;2023-04-24T04:08:02;7.80;99.90
21805;DHT22;11064;47.102;15.452;2023-04-24T04:10:27;7.80;99.90
21805;DHT22;11064;47.102;15.452;2023-04-24T04:12:53;7.90;99.90
21805;DHT22;11064;47.102;15.452;2023-04-24T04:15:19;8.00;99.90
21805;DHT22;11064;47.102;15.452;2023-04-24T04:17:45;8.10;99.90
21805;DHT22;11064;47.102;15.452;2023-04-24T04:20:11;8.10;99.90
21805;DHT22;11064;47.102;15.452;2023-04-24T04:22:37;8.20;99.90
21805;DHT22;11064;47.102;15.452;2023-04-24T04:25:04;8.30;99.90
21805;DHT22;11064;47.102;15.452;2023-04-24T04:27:30;8.30;99.90
21805;DHT22;11064;47.102;15.452;2023-04-24T04:30:01;8.40;99.90
21805;DHT22;11064;47.102;15.452;2023-04-24T04:32:34;8.40;99.90
21805;DHT22;11064;47.102;15.452;2023-04-24T04:35:00;8.40;99.90
21805;DHT22;11064;47.102;15.452;2023-04-24T04:37:32;8.40;99.90
21805;DHT22;11064;47.102;15.452;2023-04-24T04:39:59;8.50;99.90
21805;DHT22;11064;47.102;15.452;2023-04-24T04:42:28;8.50;99.90
21805;DHT22;11064;47.102;15.452;2023-04-24T04:44:54;8.60;99.90
21805;DHT22;11064;47.102;15.452;2023-04-24T04:47:23;8.60;99.90
21805;DHT22;11064;47.102;15.452;2023-04-24T04:49:49;8.70;99.90
21805;DHT22;11064;47.102;15.452;2023-04-24T04:52:17;8.70;99.90
21805;DHT22;11064;47.102;15.452;2023-04-24T04:54:43;8.80;99.90
21805;DHT22;11064;47.102;15.452;2023-04-24T04:57:09;8.80;99.90
21805;DHT22;11064;47.102;15.452;2023-04-24T04:59:36;8.80;99.90
21805;DHT22;11064;47.102;15.452;2023-04-24T05:02:02;8.80;99.90
21805;DHT22;11064;47.102;15.452;2023-04-24T05:04:28;8.80;99.90
21805;DHT22;11064;47.102;15.452;2023-04-24T05:06:54;8.80;99.90
21805;DHT22;11064;47.102;15.452;2023-04-24T05:09:20;8.90;99.90
21805;DHT22;11064;47.102;15.452;2023-04-24T05:11:46;8.90;99.90
21805;DHT22;11064;47.102;15.452;2023-04-24T05:14:11;8.90;99.90
21805;DHT22;11064;47.102;15.452;2023-04-24T05:16:38;9.00;99.90
21805;DHT22;11064;47.102;15.452;2023-04-24T05:19:05;9.00;99.90
21805;DHT22;11064;47.102;15.452;2023-04-24T05:21:31;9.00;99.90
21805;DHT22;11064;47.102;15.452;2023-04-24T05:23:57;9.10;99.90
21805;DHT22;11064;47.102;15.452;2023-04-24T05:26:23;9.10;99.90
21805;DHT22;11064;47.102;15.452;2023-04-24T05:28:49;9.20;99.90
21805;DHT22;11064;47.102;15.452;2023-04-24T05:31:15;9.20;99.90
21805;DHT22;11064;47.102;15.452;2023-04-24T05:33:43;9.30;99.90
21805;DHT22;11064;47.102;15.452;2023-04-24T05:36:09;9.30;99.90
21805;DHT22;11064;47.102;15.452;2023-04-24T05:38:35;9.30;99.90
21805;DHT22;11064;47.102;15.452;2023-04-24T05:41:01;9.30;99.90
21805;DHT22;11064;47.102;15.452;2023-04-24T05:43:27;9.30;99.90
21805;DHT22;11064;47.102;15.452;2023-04-24T05:45:52;9.30;99.90
21805;DHT22;11064;47.102;15.452;2023-04-24T05:48:19;9.30;99.90
21805;DHT22;11064;47.102;15.452;2023-04-24T05:50:45;9.30;99.90
21805;DHT22;11064;47.102;15.452;2023-04-24T05:53:12;9.40;99.90
21805;DHT22;11064;47.102;15.452;2023-04-24T05:55:38;9.30;99.90
21805;DHT22;11064;47.102;15.452;2023-04-24T05:58:04;9.30;99.90
21805;DHT22;11064;47.102;15.452;2023-04-24T06:00:30;9.30;99.90
21805;DHT22;11064;47.102;15.452;2023-04-24T06:02:56;9.50;99.90
21805;DHT22;11064;47.102;15.452;2023-04-24T06:05:22;9.80;99.90
21805;DHT22;11064;47.102;15.452;2023-04-24T06:07:48;10.00;99.90
21805;DHT22;11064;47.102;15.452;2023-04-24T06:10:13;10.30;99.90
21805;DHT22;11064;47.102;15.452;2023-04-24T06:12:39;10.60;99.90
21805;DHT22;11064;47.102;15.452;2023-04-24T06:15:06;11.00;99.90
21805;DHT22;11064;47.102;15.452;2023-04-24T06:17:32;11.20;99.90
21805;DHT22;11064;47.102;15.452;2023-04-24T06:19:58;11.50;99.90
21805;DHT22;11064;47.102;15.452;2023-04-24T06:22:24;11.40;99.90
21805;DHT22;11064;47.102;15.452;2023-04-24T06:24:50;11.40;99.90
21805;DHT22;11064;47.102;15.452;2023-04-24T06:27:15;11.40;99.90
21805;DHT22;11064;47.102;15.452;2023-04-24T06:29:41;11.50;99.90
21805;DHT22;11064;47.102;15.452;2023-04-24T06:32:07;11.70;99.90
21805;DHT22;11064;47.102;15.452;2023-04-24T06:34:33;11.90;99.90
21805;DHT22;11064;47.102;15.452;2023-04-24T06:37:00;12.00;99.90
21805;DHT22;11064;47.102;15.452;2023-04-24T06:39:26;12.10;99.90
21805;DHT22;11064;47.102;15.452;2023-04-24T06:41:52;12.50;99.90
21805;DHT22;11064;47.102;15.452;2023-04-24T06:44:17;13.20;99.90
21805;DHT22;11064;47.102;15.452;2023-04-24T06:46:43;13.70;99.90
21805;DHT22;11064;47.102;15.452;2023-04-24T06:49:09;13.80;99.90
21805;DHT22;11064;47.102;15.452;2023-04-24T06:51:35;14.00;99.90
21805;DHT22;11064;47.102;15.452;2023-04-24T06:54:01;14.20;99.90
21805;DHT22;11064;47.102;15.452;2023-04-24T06:56:27;14.60;99.90
21805;DHT22;11064;47.102;15.452;2023-04-24T06:58:54;15.00;99.90
21805;DHT22;11064;47.102;15.452;2023-04-24T07:01:20;14.70;99.90
21805;DHT22;11064;47.102;15.452;2023-04-24T07:03:46;14.80;99.90
21805;DHT22;11064;47.102;15.452;2023-04-24T07:06:12;14.40;99.90
21805;DHT22;11064;47.102;15.452;2023-04-24T07:08:38;14.30;99.90
21805;DHT22;11064;47.102;15.452;2023-04-24T07:11:04;14.00;99.90
21805;DHT22;11064;47.102;15.452;2023-04-24T07:13:30;13.60;99.90
21805;DHT22;11064;47.102;15.452;2023-04-24T07:15:56;13.10;99.90
21805;DHT22;11064;47.102;15.452;2023-04-24T07:18:22;12.80;99.90
21805;DHT22;11064;47.102;15.452;2023-04-24T07:20:48;12.30;99.90
21805;DHT22;11064;47.102;15.452;2023-04-24T07:23:16;11.90;99.90
21805;DHT22;11064;47.102;15.452;2023-04-24T07:25:42;11.70;99.90
21805;DHT22;11064;47.102;15.452;2023-04-24T07:28:08;11.50;99.90
21805;DHT22;11064;47.102;15.452;2023-04-24T07:30:34;11.10;99.90
21805;DHT22;11064;47.102;15.452;2023-04-24T07:33:00;10.90;99.90
21805;DHT22;11064;47.102;15.452;2023-04-24T07:35:28;10.70;99.90
21805;DHT22;11064;47.102;15.452;2023-04-24T07:37:54;10.60;99.90
21805;DHT22;11064;47.102;15.452;2023-04-24T07:40:20;10.60;99.90
21805;DHT22;11064;47.102;15.452;2023-04-24T07:42:46;10.60;99.90
21805;DHT22;11064;47.102;15.452;2023-04-24T07:45:14;10.50;99.90
21805;DHT22;11064;47.102;15.452;2023-04-24T07:47:43;10.50;99.90
21805;DHT22;11064;47.102;15.452;2023-04-24T07:50:11;10.50;99.90
21805;DHT22;11064;47.102;15.452;2023-04-24T07:52:38;10.50;99.90
21805;DHT22;11064;47.102;15.452;2023-04-24T07:55:04;10.60;99.90
21805;DHT22;11064;47.102;15.452;2023-04-24T07:57:30;10.70;99.90
21805;DHT22;11064;47.102;15.452;2023-04-24T07:59:56;10.80;99.90
21805;DHT22;11064;47.102;15.452;2023-04-24T08:02:22;10.80;99.90
21805;DHT22;11064;47.102;15.452;2023-04-24T08:04:52;10.70;99.90
21805;DHT22;11064;47.102;15.452;2023-04-24T08:07:19;10.70;99.90
21805;DHT22;11064;47.102;15.452;2023-04-24T08:09:45;10.70;99.90
21805;DHT22;11064;47.102;15.452;2023-04-24T08:12:11;10.70;99.90
21805;DHT22;11064;47.102;15.452;2023-04-24T08:14:37;10.70;99.90
21805;DHT22;11064;47.102;15.452;2023-04-24T08:17:02;10.70;99.90
21805;DHT22;11064;47.102;15.452;2023-04-24T08:19:29;10.70;99.90
21805;DHT22;11064;47.102;15.452;2023-04-24T08:21:55;10.70;99.90
21805;DHT22;11064;47.102;15.452;2023-04-24T08:24:21;10.70;99.90
21805;DHT22;11064;47.102;15.452;2023-04-24T08:26:47;10.70;99.90
21805;DHT22;11064;47.102;15.452;2023-04-24T08:29:16;10.70;99.90
21805;DHT22;11064;47.102;15.452;2023-04-24T08:31:42;10.80;99.90
21805;DHT22;11064;47.102;15.452;2023-04-24T08:34:08;10.90;99.90
21805;DHT22;11064;47.102;15.452;2023-04-24T08:36:34;10.90;99.90
21805;DHT22;11064;47.102;15.452;2023-04-24T08:39:00;10.90;99.90
21805;DHT22;11064;47.102;15.452;2023-04-24T08:41:27;10.90;99.90
21805;DHT22;11064;47.102;15.452;2023-04-24T08:43:52;11.00;99.90
21805;DHT22;11064;47.102;15.452;2023-04-24T08:46:19;10.90;99.90
21805;DHT22;11064;47.102;15.452;2023-04-24T08:48:45;11.00;99.90
21805;DHT22;11064;47.102;15.452;2023-04-24T08:51:11;11.00;99.90
21805;DHT22;11064;47.102;15.452;2023-04-24T08:53:37;10.90;99.90
21805;DHT22;11064;47.102;15.452;2023-04-24T08:56:03;10.90;99.90
21805;DHT22;11064;47.102;15.452;2023-04-24T08:58:31;10.80;99.90
21805;DHT22;11064;47.102;15.452;2023-04-24T09:00:58;10.80;99.90
21805;DHT22;11064;47.102;15.452;2023-04-24T09:03:24;10.80;99.90
21805;DHT22;11064;47.102;15.452;2023-04-24T09:05:52;10.90;99.90
21805;DHT22;11064;47.102;15.452;2023-04-24T09:08:24;10.90;99.90
21805;DHT22;11064;47.102;15.452;2023-04-24T09:10:51;10.90;99.90
21805;DHT22;11064;47.102;15.452;2023-04-24T09:13:19;11.00;99.90
21805;DHT22;11064;47.102;15.452;2023-04-24T09:15:45;11.00;99.90
21805;DHT22;11064;47.102;15.452;2023-04-24T09:18:11;11.00;99.90
21805;DHT22;11064;47.102;15.452;2023-04-24T09:21:07;11.00;99.90
21805;DHT22;11064;47.102;15.452;2023-04-24T09:23:33;10.90;99.90
21805;DHT22;11064;47.102;15.452;2023-04-24T09:26:01;10.80;99.90
21805;DHT22;11064;47.102;15.452;2023-04-24T09:28:32;10.80;99.90
21805;DHT22;11064;47.102;15.452;2023-04-24T09:31:14;10.80;99.90
21805;DHT22;11064;47.102;15.452;2023-04-24T09:34:04;10.80;99.90
21805;DHT22;11064;47.102;15.452;2023-04-24T09:36:38;10.80;99.90
21805;DHT22;11064;47.102;15.452;2023-04-24T09:39:04;10.70;99.90
21805;DHT22;11064;47.102;15.452;2023-04-24T09:41:32;10.60;99.90
21805;DHT22;11064;47.102;15.452;2023-04-24T09:44:17;10.60;99.90
21805;DHT22;11064;47.102;15.452;2023-04-24T09:46:49;10.70;99.90
21805;DHT22;11064;47.102;15.452;2023-04-24T09:49:21;10.90;99.90
21805;DHT22;11064;47.102;15.452;2023-04-24T09:51:47;10.90;99.90
21805;DHT22;11064;47.102;15.452;2023-04-24T09:54:19;11.00;99.90
21805;DHT22;11064;47.102;15.452;2023-04-24T09:56:50;11.10;99.90
21805;DHT22;11064;47.102;15.452;2023-04-24T09:59:18;11.30;99.90
21805;DHT22;11064;47.102;15.452;2023-04-24T10:01:45;11.70;99.90
21805;DHT22;11064;47.102;15.452;2023-04-24T10:04:28;12.00;99.90
21805;DHT22;11064;47.102;15.452;2023-04-24T10:07:09;12.50;99.90
21805;DHT22;11064;47.102;15.452;2023-04-24T10:09:35;12.80;99.90
21805;DHT22;11064;47.102;15.452;2023-04-24T10:12:01;13.30;99.90
21805;DHT22;11064;47.102;15.452;2023-04-24T10:14:29;13.70;99.90
21805;DHT22;11064;47.102;15.452;2023-04-24T10:16:56;14.20;99.90
21805;DHT22;11064;47.102;15.452;2023-04-24T10:19:25;14.40;99.90
21805;DHT22;11064;47.102;15.452;2023-04-24T10:21:52;14.90;99.90
21805;DHT22;11064;47.102;15.452;2023-04-24T10:24:20;15.20;99.90
21805;DHT22;11064;47.102;15.452;2023-04-24T10:26:48;15.50;99.90
21805;DHT22;11064;47.102;15.452;2023-04-24T10:29:16;15.80;99.90
21805;DHT22;11064;47.102;15.452;2023-04-24T10:31:43;16.00;99.90
21805;DHT22;11064;47.102;15.452;2023-04-24T10:34:12;15.70;99.90
21805;DHT22;11064;47.102;15.452;2023-04-24T10:36:51;15.80;99.90
21805;DHT22;11064;47.102;15.452;2023-04-24T10:39:17;16.00;99.90
21805;DHT22;11064;47.102;15.452;2023-04-24T10:41:44;16.00;99.90
21805;DHT22;11064;47.102;15.452;2023-04-24T10:44:15;16.00;99.90
21805;DHT22;11064;47.102;15.452;2023-04-24T10:46:53;16.00;99.90
21805;DHT22;11064;47.102;15.452;2023-04-24T10:49:28;15.90;99.90
21805;DHT22;11064;47.102;15.452;2023-04-24T10:52:00;15.80;99.90
21805;DHT22;11064;47.102;15.452;2023-04-24T10:54:29;15.80;99.90
21805;DHT22;11064;47.102;15.452;2023-04-24T10:59:51;16.20;99.90
21805;DHT22;11064;47.102;15.452;2023-04-24T11:02:18;16.40;99.90
21805;DHT22;11064;47.102;15.452;2023-04-24T11:04:44;16.40;99.90
21805;DHT22;11064;47.102;15.452;2023-04-24T11:07:13;16.40;99.90
21805;DHT22;11064;47.102;15.452;2023-04-24T11:09:39;16.60;99.90
21805;DHT22;11064;47.102;15.452;2023-04-24T11:12:10;16.80;99.90
21805;DHT22;11064;47.102;15.452;2023-04-24T11:17:38;17.00;99.90
21805;DHT22;11064;47.102;15.452;2023-04-24T11:20:15;17.50;99.90
21805;DHT22;11064;47.102;15.452;2023-04-24T11:22:42;17.50;99.90
21805;DHT22;11064;47.102;15.452;2023-04-24T11:25:09;17.40;99.90
21805;DHT22;11064;47.102;15.452;2023-04-24T11:27:43;17.40;99.90
21805;DHT22;11064;47.102;15.452;2023-04-24T11:30:10;17.50;99.90
21805;DHT22;11064;47.102;15.452;2023-04-24T11:32:39;18.20;99.90
21805;DHT22;11064;47.102;15.452;2023-04-24T11:35:19;18.60;99.90
21805;DHT22;11064;47.102;15.452;2023-04-24T11:37:50;18.80;99.90
21805;DHT22;11064;47.102;15.452;2023-04-24T11:40:18;18.40;99.90
21805;DHT22;11064;47.102;15.452;2023-04-24T11:42:50;18.20;99.90
21805;DHT22;11064;47.102;15.452;2023-04-24T11:47:44;17.40;98.90
21805;DHT22;11064;47.102;15.452;2023-04-24T11:50:13;17.00;95.90
21805;DHT22;11064;47.102;15.452;2023-04-24T11:52:40;16.90;99.90
21805;DHT22;11064;47.102;15.452;2023-04-24T11:55:09;17.20;99.90
21805;DHT22;11064;47.102;15.452;2023-04-24T11:57:54;17.50;99.90
21805;DHT22;11064;47.102;15.452;2023-04-24T12:00:30;17.40;99.90
21805;DHT22;11064;47.102;15.452;2023-04-24T12:03:10;17.80;99.90
21805;DHT22;11064;47.102;15.452;2023-04-24T12:05:37;17.90;99.90
21805;DHT22;11064;47.102;15.452;2023-04-24T12:08:03;18.10;99.90
21805;DHT22;11064;47.102;15.452;2023-04-24T12:10:31;18.40;99.90
21805;DHT22;11064;47.102;15.452;2023-04-24T12:12:58;18.10;97.40
21805;DHT22;11064;47.102;15.452;2023-04-24T12:15:25;18.20;99.90
21805;DHT22;11064;47.102;15.452;2023-04-24T12:17:52;17.80;99.90
21805;DHT22;11064;47.102;15.452;2023-04-24T12:20:27;17.30;99.90
21805;DHT22;11064;47.102;15.452;2023-04-24T12:22:55;16.80;99.90
21805;DHT22;11064;47.102;15.452;2023-04-24T12:25:24;16.70;99.90
21805;DHT22;11064;47.102;15.452;2023-04-24T12:28:10;16.90;99.90
21805;DHT22;11064;47.102;15.452;2023-04-24T12:30:44;17.10;99.90
21805;DHT22;11064;47.102;15.452;2023-04-24T12:33:10;17.40;99.90
21805;DHT22;11064;47.102;15.452;2023-04-24T12:35:36;17.80;99.90
21805;DHT22;11064;47.102;15.452;2023-04-24T12:38:10;18.20;99.90
21805;DHT22;11064;47.102;15.452;2023-04-24T12:40:36;18.80;99.90
21805;DHT22;11064;47.102;15.452;2023-04-24T12:43:02;19.00;99.20
21805;DHT22;11064;47.102;15.452;2023-04-24T12:45:28;18.70;98.20
21805;DHT22;11064;47.102;15.452;2023-04-24T12:47:54;19.10;98.60
21805;DHT22;11064;47.102;15.452;2023-04-24T12:50:20;19.40;94.40
21805;DHT22;11064;47.102;15.452;2023-04-24T12:52:46;19.40;92.10
21805;DHT22;11064;47.102;15.452;2023-04-24T12:55:12;19.40;90.20
21805;DHT22;11064;47.102;15.452;2023-04-24T12:57:39;19.70;90.90
21805;DHT22;11064;47.102;15.452;2023-04-24T13:00:07;19.90;92.60
21805;DHT22;11064;47.102;15.452;2023-04-24T13:02:34;20.10;87.90
21805;DHT22;11064;47.102;15.452;2023-04-24T13:05:01;19.70;90.80
21805;DHT22;11064;47.102;15.452;2023-04-24T13:07:27;19.40;91.10
21805;DHT22;11064;47.102;15.452;2023-04-24T13:09:55;19.70;90.90
21805;DHT22;11064;47.102;15.452;2023-04-24T13:12:21;19.50;91.20
21805;DHT22;11064;47.102;15.452;2023-04-24T13:14:48;19.20;87.30
21805;DHT22;11064;47.102;15.452;2023-04-24T13:17:14;18.60;90.30
21805;DHT22;11064;47.102;15.452;2023-04-24T13:19:42;18.30;90.50
21805;DHT22;11064;47.102;15.452;2023-04-24T13:22:12;18.30;90.10
21805;DHT22;11064;47.102;15.452;2023-04-24T13:24:39;18.20;92.60
21805;DHT22;11064;47.102;15.452;2023-04-24T13:27:08;18.20;93.90
21805;DHT22;11064;47.102;15.452;2023-04-24T13:29:35;18.10;93.30
21805;DHT22;11064;47.102;15.452;2023-04-24T13:32:01;18.30;94.40
21805;DHT22;11064;47.102;15.452;2023-04-24T13:34:27;18.30;94.10
21805;DHT22;11064;47.102;15.452;2023-04-24T13:36:55;18.20;93.00
21805;DHT22;11064;47.102;15.452;2023-04-24T13:39:22;17.80;95.10
21805;DHT22;11064;47.102;15.452;2023-04-24T13:41:48;17.80;94.30
21805;DHT22;11064;47.102;15.452;2023-04-24T13:44:15;17.60;94.40
21805;DHT22;11064;47.102;15.452;2023-04-24T13:46:43;17.50;95.40
21805;DHT22;11064;47.102;15.452;2023-04-24T13:49:12;17.30;95.00
21805;DHT22;11064;47.102;15.452;2023-04-24T13:51:38;17.40;97.30
21805;DHT22;11064;47.102;15.452;2023-04-24T13:54:05;17.60;98.00
21805;DHT22;11064;47.102;15.452;2023-04-24T13:56:31;17.70;98.10
21805;DHT22;11064;47.102;15.452;2023-04-24T13:58:57;18.00;98.50
21805;DHT22;11064;47.102;15.452;2023-04-24T14:01:24;17.70;98.50
21805;DHT22;11064;47.102;15.452;2023-04-24T14:03:54;17.50;99.90
21805;DHT22;11064;47.102;15.452;2023-04-24T14:06:22;17.60;99.90
21805;DHT22;11064;47.102;15.452;2023-04-24T14:08:48;17.50;99.90
21805;DHT22;11064;47.102;15.452;2023-04-24T14:11:16;17.60;99.50
21805;DHT22;11064;47.102;15.452;2023-04-24T14:13:43;17.70;99.40
21805;DHT22;11064;47.102;15.452;2023-04-24T14:16:10;17.40;99.90
21805;DHT22;11064;47.102;15.452;2023-04-24T14:18:36;16.70;99.90
21805;DHT22;11064;47.102;15.452;2023-04-24T14:21:03;16.50;99.90
21805;DHT22;11064;47.102;15.452;2023-04-24T14:23:29;16.30;99.90
21805;DHT22;11064;47.102;15.452;2023-04-24T14:25:55;16.20;99.90
21805;DHT22;11064;47.102;15.452;2023-04-24T14:28:21;16.00;99.90
21805;DHT22;11064;47.102;15.452;2023-04-24T14:30:47;15.90;99.90
21805;DHT22;11064;47.102;15.452;2023-04-24T14:33:13;16.10;99.90
21805;DHT22;11064;47.102;15.452;2023-04-24T14:35:41;15.80;99.90
21805;DHT22;11064;47.102;15.452;2023-04-24T14:38:10;15.80;99.90
21805;DHT22;11064;47.102;15.452;2023-04-24T14:40:37;16.00;99.90
21805;DHT22;11064;47.102;15.452;2023-04-24T14:43:03;15.80;99.90
21805;DHT22;11064;47.102;15.452;2023-04-24T14:45:29;15.80;99.90
21805;DHT22;11064;47.102;15.452;2023-04-24T14:47:55;15.70;99.90
21805;DHT22;11064;47.102;15.452;2023-04-24T14:50:22;15.50;99.90
21805;DHT22;11064;47.102;15.452;2023-04-24T14:52:48;15.20;99.90
21805;DHT22;11064;47.102;15.452;2023-04-24T14:55:13;15.10;99.90
21805;DHT22;11064;47.102;15.452;2023-04-24T14:57:40;15.00;99.90
21805;DHT22;11064;47.102;15.452;2023-04-24T15:00:06;14.80;99.90
21805;DHT22;11064;47.102;15.452;2023-04-24T15:02:35;14.70;99.90
21805;DHT22;11064;47.102;15.452;2023-04-24T15:05:03;14.70;99.90
21805;DHT22;11064;47.102;15.452;2023-04-24T15:07:29;14.70;99.90
21805;DHT22;11064;47.102;15.452;2023-04-24T15:09:56;14.70;99.90
21805;DHT22;11064;47.102;15.452;2023-04-24T15:12:22;14.70;99.90
21805;DHT22;11064;47.102;15.452;2023-04-24T15:14:48;14.40;99.90
21805;DHT22;11064;47.102;15.452;2023-04-24T15:17:14;14.20;99.90
21805;DHT22;11064;47.102;15.452;2023-04-24T15:19:40;14.10;99.90
21805;DHT22;11064;47.102;15.452;2023-04-24T15:22:06;14.00;99.90
21805;DHT22;11064;47.102;15.452;2023-04-24T15:24:31;14.00;99.90
21805;DHT22;11064;47.102;15.452;2023-04-24T15:26:59;14.00;99.90
21805;DHT22;11064;47.102;15.452;2023-04-24T15:29:25;13.80;99.90
21805;DHT22;11064;47.102;15.452;2023-04-24T15:31:52;13.80;99.90
21805;DHT22;11064;47.102;15.452;2023-04-24T15:34:18;13.60;99.90
21805;DHT22;11064;47.102;15.452;2023-04-24T15:36:44;13.50;99.90
21805;DHT22;11064;47.102;15.452;2023-04-24T15:39:10;13.40;99.90
21805;DHT22;11064;47.102;15.452;2023-04-24T15:41:36;13.40;99.90
21805;DHT22;11064;47.102;15.452;2023-04-24T15:44:02;13.30;99.90
21805;DHT22;11064;47.102;15.452;2023-04-24T15:46:27;13.10;99.90
21805;DHT22;11064;47.102;15.452;2023-04-24T15:48:53;12.80;99.90
21805;DHT22;11064;47.102;15.452;2023-04-24T15:51:19;12.40;99.90
21805;DHT22;11064;47.102;15.452;2023-04-24T15:53:45;11.80;99.90
21805;DHT22;11064;47.102;15.452;2023-04-24T15:56:11;11.20;99.90
21805;DHT22;11064;47.102;15.452;2023-04-24T15:58:37;10.90;99.90
21805;DHT22;11064;47.102;15.452;2023-04-24T16:01:03;10.60;99.90
21805;DHT22;11064;47.102;15.452;2023-04-24T16:03:29;10.50;99.90
21805;DHT22;11064;47.102;15.452;2023-04-24T16:05:55;10.40;99.90
21805;DHT22;11064;47.102;15.452;2023-04-24T16:08:21;10.40;99.90
21805;DHT22;11064;47.102;15.452;2023-04-24T16:10:47;10.30;99.90
21805;DHT22;11064;47.102;15.452;2023-04-24T16:13:14;10.40;99.90
21805;DHT22;11064;47.102;15.452;2023-04-24T16:15:41;10.40;99.90
21805;DHT22;11064;47.102;15.452;2023-04-24T16:18:07;10.40;99.90
21805;DHT22;11064;47.102;15.452;2023-04-24T16:20:33;10.50;99.90
21805;DHT22;11064;47.102;15.452;2023-04-24T16:22:59;10.50;99.90
21805;DHT22;11064;47.102;15.452;2023-04-24T16:25:25;10.50;99.90
21805;DHT22;11064;47.102;15.452;2023-04-24T16:27:51;10.40;99.90
21805;DHT22;11064;47.102;15.452;2023-04-24T16:30:17;10.50;99.90
21805;DHT22;11064;47.102;15.452;2023-04-24T16:32:44;10.40;99.90
21805;DHT22;11064;47.102;15.452;2023-04-24T16:35:10;10.40;99.90
21805;DHT22;11064;47.102;15.452;2023-04-24T16:37:35;10.40;99.90
21805;DHT22;11064;47.102;15.452;2023-04-24T16:40:02;10.30;99.90
21805;DHT22;11064;47.102;15.452;2023-04-24T16:42:31;10.20;99.90
21805;DHT22;11064;47.102;15.452;2023-04-24T16:44:57;10.10;99.90
21805;DHT22;11064;47.102;15.452;2023-04-24T16:47:23;10.00;99.90
21805;DHT22;11064;47.102;15.452;2023-04-24T16:49:49;9.90;99.90
21805;DHT22;11064;47.102;15.452;2023-04-24T16:52:15;9.90;99.90
21805;DHT22;11064;47.102;15.452;2023-04-24T16:54:41;9.80;99.90
21805;DHT22;11064;47.102;15.452;2023-04-24T16:57:07;9.80;99.90
21805;DHT22;11064;47.102;15.452;2023-04-24T16:59:33;9.70;99.90
21805;DHT22;11064;47.102;15.452;2023-04-24T17:02:02;9.70;99.90
21805;DHT22;11064;47.102;15.452;2023-04-24T17:04:28;9.70;99.90
21805;DHT22;11064;47.102;15.452;2023-04-24T17:06:55;9.80;99.90
21805;DHT22;11064;47.102;15.452;2023-04-24T17:09:20;9.70;99.90
21805;DHT22;11064;47.102;15.452;2023-04-24T17:11:46;9.70;99.90
21805;DHT22;11064;47.102;15.452;2023-04-24T17:14:12;9.70;99.90
21805;DHT22;11064;47.102;15.452;2023-04-24T17:16:38;9.70;99.90
21805;DHT22;11064;47.102;15.452;2023-04-24T17:19:06;9.70;99.90
21805;DHT22;11064;47.102;15.452;2023-04-24T17:21:32;9.60;99.90
21805;DHT22;11064;47.102;15.452;2023-04-24T17:23:58;9.50;99.90
21805;DHT22;11064;47.102;15.452;2023-04-24T17:26:25;9.50;99.90
21805;DHT22;11064;47.102;15.452;2023-04-24T17:28:52;9.40;99.90
21805;DHT22;11064;47.102;15.452;2023-04-24T17:31:20;9.30;99.90
21805;DHT22;11064;47.102;15.452;2023-04-24T17:33:46;9.20;99.90
21805;DHT22;11064;47.102;15.452;2023-04-24T17:36:13;9.10;99.90
21805;DHT22;11064;47.102;15.452;2023-04-24T17:38:39;9.00;99.90
21805;DHT22;11064;47.102;15.452;2023-04-24T17:41:05;9.00;99.90
21805;DHT22;11064;47.102;15.452;2023-04-24T17:43:31;9.00;99.90
21805;DHT22;11064;47.102;15.452;2023-04-24T17:45:57;9.00;99.90
21805;DHT22;11064;47.102;15.452;2023-04-24T17:48:26;9.00;99.90
21805;DHT22;11064;47.102;15.452;2023-04-24T17:50:52;9.00;99.90
21805;DHT22;11064;47.102;15.452;2023-04-24T17:53:19;8.90;99.90
21805;DHT22;11064;47.102;15.452;2023-04-24T17:55:46;8.80;99.90
21805;DHT22;11064;47.102;15.452;2023-04-24T17:58:12;8.70;99.90
21805;DHT22;11064;47.102;15.452;2023-04-24T18:00:39;8.70;99.90
21805;DHT22;11064;47.102;15.452;2023-04-24T18:03:07;8.70;99.90
21805;DHT22;11064;47.102;15.452;2023-04-24T18:05:36;8.70;99.90
21805;DHT22;11064;47.102;15.452;2023-04-24T18:08:05;8.60;99.90
21805;DHT22;11064;47.102;15.452;2023-04-24T18:10:31;8.60;99.90
21805;DHT22;11064;47.102;15.452;2023-04-24T18:12:58;8.50;99.90
21805;DHT22;11064;47.102;15.452;2023-04-24T18:15:24;8.50;99.90
21805;DHT22;11064;47.102;15.452;2023-04-24T18:17:51;8.50;99.90
21805;DHT22;11064;47.102;15.452;2023-04-24T18:20:18;8.50;99.90
21805;DHT22;11064;47.102;15.452;2023-04-24T18:22:45;8.50;99.90
21805;DHT22;11064;47.102;15.452;2023-04-24T18:25:13;8.50;99.90
21805;DHT22;11064;47.102;15.452;2023-04-24T18:27:40;8.50;99.90
21805;DHT22;11064;47.102;15.452;2023-04-24T18:30:08;8.40;99.90
21805;DHT22;11064;47.102;15.452;2023-04-24T18:32:34;8.40;99.90
21805;DHT22;11064;47.102;15.452;2023-04-24T18:35:01;8.40;99.90
21805;DHT22;11064;47.102;15.452;2023-04-24T18:37:28;8.40;99.90
21805;DHT22;11064;47.102;15.452;2023-04-24T18:39:54;8.40;99.90
21805;DHT22;11064;47.102;15.452;2023-04-24T18:42:21;8.40;99.90
21805;DHT22;11064;47.102;15.452;2023-04-24T18:44:47;8.40;99.90
21805;DHT22;11064;47.102;15.452;2023-04-24T18:47:14;8.40;99.90
21805;DHT22;11064;47.102;15.452;2023-04-24T18:49:40;8.40;99.90
21805;DHT22;11064;47.102;15.452;2023-04-24T18:52:06;8.40;99.90
21805;DHT22;11064;47.102;15.452;2023-04-24T18:54:32;8.30;99.90
21805;DHT22;11064;47.102;15.452;2023-04-24T18:56:58;8.30;99.90
21805;DHT22;11064;47.102;15.452;2023-04-24T18:59:24;8.30;99.90
21805;DHT22;11064;47.102;15.452;2023-04-24T19:01:53;8.30;99.90
21805;DHT22;11064;47.102;15.452;2023-04-24T19:04:19;8.30;99.90
21805;DHT22;11064;47.102;15.452;2023-04-24T19:06:46;8.30;99.90
21805;DHT22;11064;47.102;15.452;2023-04-24T19:09:13;8.30;99.90
21805;DHT22;11064;47.102;15.452;2023-04-24T19:11:39;8.30;99.90
21805;DHT22;11064;47.102;15.452;2023-04-24T19:14:06;8.30;99.90
21805;DHT22;11064;47.102;15.452;2023-04-24T19:16:32;8.40;99.90
21805;DHT22;11064;47.102;15.452;2023-04-24T19:18:58;8.30;99.90
21805;DHT22;11064;47.102;15.452;2023-04-24T19:21:24;8.40;99.90
21805;DHT22;11064;47.102;15.452;2023-04-24T19:23:50;8.30;99.90
21805;DHT22;11064;47.102;15.452;2023-04-24T19:26:17;8.30;99.90
21805;DHT22;11064;47.102;15.452;2023-04-24T19:28:43;8.20;99.90
21805;DHT22;11064;47.102;15.452;2023-04-24T19:31:09;8.30;99.90